createdAt,value
2023-02-16T00:01:59.138Z,58.30
2023-02-16T00:04:31.277Z,58.63
2023-02-16T00:06:58.561Z,57.63
2023-02-16T00:09:26.007Z,58.25
2023-02-16T00:12:13.348Z,57.94
2023-02-16T00:14:40.790Z,57.99
2023-02-16T00:17:11.289Z,58.14
2023-02-16T00:19:40.638Z,58.04
2023-02-16T00:22:11.464Z,57.79
2023-02-16T00:24:41.566Z,58.18
2023-02-16T00:27:13.456Z,58.34
2023-02-16T00:29:40.434Z,58.19
2023-02-16T00:32:12.512Z,58.36
2023-02-16T00:34:43.313Z,58.17
2023-02-16T00:37:12.883Z,58.11
2023-02-16T00:39:42.642Z,58.40
2023-02-16T00:42:19.013Z,58.92
2023-02-16T00:44:49.336Z,58.89
2023-02-16T00:47:23.541Z,59.05
2023-02-16T00:49:53.336Z,58.93
2023-02-16T00:52:42.851Z,58.83
2023-02-16T00:55:15.548Z,58.97
2023-02-16T00:57:51.341Z,58.90
2023-02-16T01:00:25.371Z,59.06
2023-02-16T01:02:57.406Z,59.31
2023-02-16T01:05:25.047Z,59.61
2023-02-16T01:08:10.607Z,59.08
2023-02-16T01:10:57.417Z,59.51
2023-02-16T01:13:27.038Z,59.21
2023-02-16T01:15:55.623Z,60.13
2023-02-16T01:18:22.820Z,59.35
2023-02-16T01:21:25.788Z,59.72
2023-02-16T01:23:52.836Z,59.09
2023-02-16T01:26:20.659Z,59.55
2023-02-16T01:28:48.553Z,59.31
2023-02-16T01:31:16.798Z,59.19
2023-02-16T01:33:44.167Z,59.49
2023-02-16T01:36:22.555Z,59.65
2023-02-16T01:38:49.473Z,59.18
2023-02-16T01:41:25.185Z,60.21
2023-02-16T01:44:11.772Z,60.22
2023-02-16T01:47:07.904Z,60.67
2023-02-16T01:49:38.115Z,60.00
2023-02-16T01:52:14.336Z,60.66
2023-02-16T01:54:47.772Z,60.46
2023-02-16T01:57:14.955Z,60.75
2023-02-16T01:59:49.159Z,60.51
2023-02-16T02:02:29.054Z,60.45
2023-02-16T02:05:22.211Z,60.59
2023-02-16T02:08:02.772Z,60.40
2023-02-16T02:11:10.207Z,60.69
2023-02-16T02:13:54.693Z,60.69
2023-02-16T02:16:26.426Z,60.10
2023-02-16T02:18:53.427Z,60.23
2023-02-16T02:22:00.597Z,60.35
2023-02-16T02:24:46.938Z,60.18
2023-02-16T02:27:24.819Z,59.72
2023-02-16T02:30:06.486Z,60.03
2023-02-16T02:33:05.741Z,60.83
2023-02-16T02:35:55.393Z,60.24
2023-02-16T02:38:47.965Z,60.13
2023-02-16T02:41:57.394Z,60.04
2023-02-16T02:44:29.544Z,60.33
2023-02-16T02:46:57.084Z,60.19
2023-02-16T02:49:24.110Z,60.59
2023-02-16T02:51:51.989Z,60.33
2023-02-16T02:54:46.743Z,60.57
2023-02-16T02:57:53.574Z,60.94
2023-02-16T03:00:41.514Z,61.27
2023-02-16T03:03:30.589Z,61.20
2023-02-16T03:05:57.591Z,60.56
2023-02-16T03:08:27.354Z,60.66
2023-02-16T03:11:27.723Z,61.10
2023-02-16T03:14:00.103Z,60.70
2023-02-16T03:16:34.159Z,60.57
2023-02-16T03:19:21.142Z,60.79
2023-02-16T03:22:07.143Z,60.75
2023-02-16T03:24:53.003Z,60.86
2023-02-16T03:27:44.317Z,60.54
2023-02-16T03:30:15.038Z,60.47
2023-02-16T03:32:43.444Z,60.81
2023-02-16T03:35:12.845Z,60.82
2023-02-16T03:37:45.014Z,60.98
2023-02-16T03:40:30.332Z,60.74
2023-02-16T03:43:02.882Z,60.82
2023-02-16T03:45:31.611Z,60.67
2023-02-16T03:47:58.611Z,60.96
2023-02-16T03:50:27.486Z,60.92
2023-02-16T03:53:07.931Z,60.82
2023-02-16T03:55:44.153Z,60.80
2023-02-16T03:58:19.879Z,61.06
2023-02-16T04:00:47.459Z,60.60
2023-02-16T04:03:15.018Z,60.75
2023-02-16T04:05:42.236Z,60.75
2023-02-16T04:08:10.170Z,60.75
2023-02-16T04:10:38.642Z,60.68
2023-02-16T04:13:05.604Z,60.82
2023-02-16T04:15:33.191Z,60.84
2023-02-16T04:18:00.267Z,60.83
2023-02-16T04:20:32.051Z,61.03
2023-02-16T04:22:59.056Z,60.69
2023-02-16T04:25:26.012Z,60.67
2023-02-16T04:27:53.896Z,60.80
2023-02-16T04:30:23.900Z,60.89
2023-02-16T04:32:50.960Z,61.37
2023-02-16T04:35:18.604Z,61.07
2023-02-16T04:37:45.598Z,61.34
2023-02-16T04:40:14.123Z,61.60
2023-02-16T04:42:42.069Z,61.51
2023-02-16T04:45:10.171Z,61.42
2023-02-16T04:47:37.648Z,61.77
2023-02-16T04:50:05.479Z,61.83
2023-02-16T04:52:32.544Z,61.70
2023-02-16T04:54:59.617Z,61.52
2023-02-16T04:57:26.527Z,61.39
2023-02-16T04:59:53.534Z,61.47
2023-02-16T05:02:20.408Z,61.30
2023-02-16T05:04:47.936Z,61.42
2023-02-16T05:07:14.824Z,61.38
2023-02-16T05:09:41.865Z,61.35
2023-02-16T05:12:28.729Z,61.31
2023-02-16T05:14:55.694Z,61.93
2023-02-16T05:17:26.679Z,62.00
2023-02-16T05:19:59.371Z,61.93
2023-02-16T05:22:28.744Z,61.59
2023-02-16T05:24:55.722Z,61.42
2023-02-16T05:27:25.650Z,61.49
2023-02-16T05:29:52.695Z,61.73
2023-02-16T05:32:20.579Z,61.37
2023-02-16T05:34:48.109Z,61.67
2023-02-16T05:37:17.748Z,61.46
2023-02-16T05:39:45.275Z,61.37
2023-02-16T05:42:12.237Z,61.25
2023-02-16T05:44:39.440Z,61.51
2023-02-16T05:47:06.396Z,61.38
2023-02-16T05:49:33.261Z,61.30
2023-02-16T05:52:00.207Z,60.90
2023-02-16T05:54:28.107Z,61.28
2023-02-16T05:56:55.090Z,61.25
2023-02-16T05:59:22.692Z,61.23
2023-02-16T06:01:51.969Z,61.08
2023-02-16T06:04:20.364Z,61.66
2023-02-16T06:06:47.901Z,61.33
2023-02-16T06:09:15.306Z,61.32
2023-02-16T06:11:42.879Z,61.47
2023-02-16T06:14:13.169Z,61.65
2023-02-16T06:16:42.732Z,61.50
2023-02-16T06:19:09.796Z,61.64
2023-02-16T06:21:37.651Z,61.80
2023-02-16T06:24:05.217Z,61.87
2023-02-16T06:26:32.451Z,61.67
2023-02-16T06:28:59.463Z,61.91
2023-02-16T06:31:27.045Z,61.65
2023-02-16T06:33:56.861Z,61.35
2023-02-16T06:36:24.820Z,61.76
2023-02-16T06:38:52.231Z,62.02
2023-02-16T06:41:39.850Z,61.69
2023-02-16T06:44:12.524Z,62.23
2023-02-16T06:46:40.960Z,61.89
2023-02-16T06:49:08.450Z,62.01
2023-02-16T06:51:35.419Z,62.07
2023-02-16T06:54:02.359Z,61.78
2023-02-16T06:56:29.377Z,61.83
2023-02-16T06:58:56.346Z,61.55
2023-02-16T07:01:25.978Z,61.72
2023-02-16T07:03:55.457Z,61.67
2023-02-16T07:06:24.723Z,61.40
2023-02-16T07:08:52.265Z,61.09
2023-02-16T07:11:20.335Z,61.29
2023-02-16T07:13:50.205Z,60.99
2023-02-16T07:16:17.159Z,60.85
2023-02-16T07:18:47.686Z,60.35
2023-02-16T07:21:15.015Z,60.34
2023-02-16T07:23:41.980Z,60.11
2023-02-16T07:26:09.692Z,59.88
2023-02-16T07:28:36.668Z,59.61
2023-02-16T07:31:09.212Z,59.28
2023-02-16T07:33:36.902Z,58.84
2023-02-16T07:36:04.481Z,58.52
2023-02-16T07:38:31.573Z,58.13
2023-02-16T07:40:59.176Z,57.43
2023-02-16T07:43:26.361Z,56.86
2023-02-16T07:45:53.684Z,56.25
2023-02-16T07:48:20.970Z,55.63
2023-02-16T07:50:47.921Z,54.69
2023-02-16T07:53:14.947Z,53.90
2023-02-16T07:55:43.691Z,53.10
2023-02-16T07:58:10.901Z,51.87
2023-02-16T08:00:38.133Z,50.57
2023-02-16T08:03:05.411Z,49.56
2023-02-16T08:05:34.517Z,48.15
2023-02-16T08:08:01.446Z,47.26
2023-02-16T08:10:28.605Z,46.51
2023-02-16T08:12:55.521Z,45.33
2023-02-16T08:15:24.025Z,43.97
2023-02-16T08:17:51.189Z,44.71
2023-02-16T08:20:18.238Z,44.39
2023-02-16T08:22:45.336Z,44.01
2023-02-16T08:25:12.280Z,43.37
2023-02-16T08:27:41.611Z,43.48
2023-02-16T08:30:12.976Z,42.01
2023-02-16T08:32:40.843Z,41.72
2023-02-16T08:35:08.930Z,41.17
2023-02-16T08:37:38.961Z,40.41
2023-02-16T08:40:09.101Z,39.60
2023-02-16T08:42:37.154Z,38.65
2023-02-16T08:45:06.720Z,37.50
2023-02-16T08:47:34.960Z,35.75
2023-02-16T08:50:01.865Z,34.30
2023-02-16T08:52:29.168Z,33.85
2023-02-16T08:54:56.135Z,31.64
2023-02-16T08:57:23.084Z,31.06
2023-02-16T09:00:10.177Z,31.48
2023-02-16T09:02:37.596Z,32.58
2023-02-16T09:05:04.709Z,33.28
2023-02-16T09:07:35.195Z,33.79
2023-02-16T09:10:03.201Z,34.88
2023-02-16T09:12:31.121Z,35.71
2023-02-16T09:15:01.807Z,37.21
2023-02-16T09:17:29.272Z,37.67
2023-02-16T09:19:56.703Z,38.19
2023-02-16T09:22:23.785Z,39.01
2023-02-16T09:24:50.977Z,39.88
2023-02-16T09:27:18.522Z,40.23
2023-02-16T09:29:45.656Z,40.83
2023-02-16T09:32:15.557Z,41.18
2023-02-16T09:34:44.722Z,41.42
2023-02-16T09:37:11.668Z,42.16
2023-02-16T09:39:38.598Z,42.18
2023-02-16T09:42:20.822Z,42.29
2023-02-16T09:44:53.538Z,42.77
2023-02-16T09:47:31.527Z,43.04
2023-02-16T09:50:06.584Z,43.18
2023-02-16T09:52:44.605Z,43.51
2023-02-16T09:55:15.442Z,43.47
2023-02-16T09:57:55.765Z,44.06
2023-02-16T10:00:34.659Z,44.22
2023-02-16T10:03:01.635Z,44.18
2023-02-16T10:05:53.460Z,44.55
2023-02-16T10:08:31.588Z,44.50
2023-02-16T10:11:30.821Z,44.57
2023-02-16T10:14:03.069Z,44.79
2023-02-16T10:16:41.466Z,44.82
2023-02-16T10:19:36.130Z,45.03
2023-02-16T10:22:08.711Z,45.05
2023-02-16T10:24:47.073Z,44.93
2023-02-16T10:27:16.576Z,45.19
2023-02-16T10:29:43.714Z,45.32
2023-02-16T10:32:30.692Z,45.22
2023-02-16T10:35:22.593Z,45.18
2023-02-16T10:38:04.315Z,45.18
2023-02-16T10:41:03.744Z,45.27
2023-02-16T10:43:58.746Z,45.33
2023-02-16T10:46:31.206Z,45.48
2023-02-16T10:49:02.220Z,45.50
2023-02-16T10:51:37.416Z,45.15
2023-02-16T10:54:15.218Z,45.36
2023-02-16T10:56:52.577Z,45.51
2023-02-16T10:59:23.600Z,45.79
2023-02-16T11:01:57.660Z,45.44
2023-02-16T11:04:41.561Z,45.57
2023-02-16T11:07:23.439Z,45.60
2023-02-16T11:09:55.683Z,45.89
2023-02-16T11:12:28.527Z,45.61
2023-02-16T11:15:01.288Z,45.66
2023-02-16T11:17:28.336Z,45.61
2023-02-16T11:20:01.961Z,45.95
2023-02-16T11:22:38.256Z,45.77
2023-02-16T11:25:23.913Z,45.89
2023-02-16T11:28:02.170Z,46.02
2023-02-16T11:30:32.533Z,46.18
2023-02-16T11:33:05.710Z,46.33
2023-02-16T11:35:41.144Z,46.25
2023-02-16T11:38:26.931Z,46.23
2023-02-16T11:40:55.847Z,46.04
2023-02-16T11:43:28.657Z,45.94
2023-02-16T11:46:20.135Z,46.24
2023-02-16T11:48:47.923Z,46.09
2023-02-16T11:51:16.104Z,46.27
2023-02-16T11:53:44.507Z,45.95
2023-02-16T11:56:13.440Z,46.18
2023-02-16T11:58:41.007Z,46.13
2023-02-16T12:01:35.973Z,45.98
2023-02-16T12:04:22.422Z,45.95
2023-02-16T12:07:17.988Z,46.39
2023-02-16T12:10:10.857Z,46.53
2023-02-16T12:13:10.345Z,46.40
2023-02-16T12:15:47.055Z,46.63
2023-02-16T12:18:17.291Z,46.64
2023-02-16T12:21:07.003Z,46.52
2023-02-16T12:23:42.608Z,46.50
2023-02-16T12:26:10.050Z,46.85
2023-02-16T12:29:11.792Z,46.45
2023-02-16T12:32:16.254Z,46.65
2023-02-16T12:35:01.761Z,46.81
2023-02-16T12:37:37.948Z,46.75
2023-02-16T12:40:10.940Z,46.76
2023-02-16T12:43:12.745Z,46.77
2023-02-16T12:45:44.588Z,46.51
2023-02-16T12:48:11.408Z,46.58
2023-02-16T12:50:45.140Z,46.79
2023-02-16T12:53:22.546Z,47.09
2023-02-16T12:56:03.575Z,47.86
2023-02-16T12:58:35.337Z,47.75
2023-02-16T13:01:14.724Z,48.08
2023-02-16T13:04:02.229Z,48.55
2023-02-16T13:06:56.644Z,49.09
2023-02-16T13:09:41.698Z,49.41
2023-02-16T13:12:34.486Z,49.24
2023-02-16T13:15:30.847Z,48.75
2023-02-16T13:18:03.458Z,48.54
2023-02-16T13:20:30.677Z,48.66
2023-02-16T13:23:19.005Z,48.62
2023-02-16T13:26:05.628Z,48.67
2023-02-16T13:28:47.248Z,48.53
2023-02-16T13:31:29.477Z,48.76
2023-02-16T13:34:05.738Z,49.71
2023-02-16T13:36:47.831Z,50.82
2023-02-16T13:39:31.739Z,50.64
2023-02-16T13:42:20.408Z,50.73
2023-02-16T13:44:54.696Z,50.39
2023-02-16T13:47:42.207Z,50.60
2023-02-16T13:50:32.560Z,50.70
2023-02-16T13:53:16.729Z,50.60
2023-02-16T13:55:44.185Z,50.49
2023-02-16T13:58:14.198Z,50.71
2023-02-16T14:00:47.929Z,50.72
2023-02-16T14:03:17.731Z,51.19
2023-02-16T14:05:48.058Z,50.94
2023-02-16T14:08:22.507Z,50.73
2023-02-16T14:10:55.475Z,51.27
2023-02-16T14:13:39.511Z,51.24
2023-02-16T14:16:07.035Z,51.62
2023-02-16T14:18:45.216Z,52.36
2023-02-16T14:21:44.182Z,52.80
2023-02-16T14:24:24.592Z,52.34
2023-02-16T14:27:01.780Z,53.04
2023-02-16T14:30:01.691Z,53.37
2023-02-16T14:32:38.765Z,53.30
2023-02-16T14:35:05.617Z,53.94
2023-02-16T14:37:51.516Z,54.09
2023-02-16T14:40:22.656Z,54.18
2023-02-16T14:42:55.311Z,54.38
2023-02-16T14:45:41.094Z,55.24
2023-02-16T14:48:26.937Z,54.07
2023-02-16T14:51:31.308Z,55.06
2023-02-16T14:54:27.386Z,54.73
2023-02-16T14:57:02.370Z,54.08
2023-02-16T14:59:47.886Z,54.25
2023-02-16T15:02:31.510Z,53.89
2023-02-16T15:04:58.944Z,53.89
2023-02-16T15:07:28.868Z,54.17
2023-02-16T15:09:58.444Z,54.80
2023-02-16T15:12:40.675Z,54.48
2023-02-16T15:15:13.563Z,54.47
2023-02-16T15:17:50.427Z,54.78
2023-02-16T15:20:25.026Z,55.27
2023-02-16T15:23:03.858Z,55.71
2023-02-16T15:25:40.851Z,55.69
2023-02-16T15:28:10.828Z,55.95
2023-02-16T15:30:41.957Z,55.89
2023-02-16T15:33:24.206Z,55.36
2023-02-16T15:35:55.758Z,54.98
2023-02-16T15:38:25.760Z,55.27
2023-02-16T15:40:57.211Z,55.98
2023-02-16T15:43:36.000Z,55.55
2023-02-16T15:46:05.020Z,55.40
2023-02-16T15:48:34.186Z,55.39
2023-02-16T15:51:02.411Z,55.48
2023-02-16T15:53:35.409Z,55.92
2023-02-16T15:56:31.320Z,55.28
2023-02-16T15:59:01.716Z,55.32
2023-02-16T16:01:37.897Z,55.98
2023-02-16T16:04:26.779Z,56.07
2023-02-16T16:06:54.371Z,56.52
2023-02-16T16:09:29.855Z,56.40
2023-02-16T16:12:00.007Z,56.78
2023-02-16T16:14:27.939Z,56.78
2023-02-16T16:16:55.944Z,56.67
2023-02-16T16:19:42.800Z,56.85
2023-02-16T16:22:33.071Z,56.91
2023-02-16T16:25:00.590Z,56.85
2023-02-16T16:27:38.720Z,57.04
2023-02-16T16:30:20.779Z,56.87
2023-02-16T16:32:48.010Z,56.41
2023-02-16T16:35:40.784Z,56.18
2023-02-16T16:38:22.410Z,56.49
2023-02-16T16:40:53.195Z,56.08
2023-02-16T16:43:23.087Z,56.08
2023-02-16T16:45:57.860Z,55.95
2023-02-16T16:48:34.720Z,55.79
2023-02-16T16:51:31.796Z,56.78
2023-02-16T16:54:04.296Z,56.37
2023-02-16T16:56:38.247Z,57.08
2023-02-16T16:59:06.052Z,56.46
2023-02-16T17:01:33.092Z,57.22
2023-02-16T17:04:10.361Z,57.26
2023-02-16T17:06:37.279Z,57.06
2023-02-16T17:09:11.163Z,57.30
2023-02-16T17:11:39.071Z,57.31
2023-02-16T17:14:26.431Z,58.09
2023-02-16T17:16:56.469Z,58.49
2023-02-16T17:19:23.578Z,57.96
2023-02-16T17:21:50.637Z,58.08
2023-02-16T17:24:17.810Z,57.93
2023-02-16T17:26:44.784Z,58.38
2023-02-16T17:29:12.135Z,58.21
2023-02-16T17:31:39.367Z,58.34
2023-02-16T17:34:06.473Z,58.48
2023-02-16T17:36:34.494Z,58.52
2023-02-16T17:39:02.078Z,58.96
2023-02-16T17:41:30.044Z,59.35
2023-02-16T17:43:56.941Z,59.33
2023-02-16T17:46:25.000Z,59.63
2023-02-16T17:48:55.184Z,59.82
2023-02-16T17:51:24.903Z,60.85
2023-02-16T17:53:52.769Z,61.19
2023-02-16T17:56:22.444Z,61.64
2023-02-16T17:58:49.846Z,61.12
2023-02-16T18:01:19.270Z,60.66
2023-02-16T18:03:46.261Z,61.49
2023-02-16T18:06:25.496Z,61.45
2023-02-16T18:08:57.014Z,61.48
2023-02-16T18:11:24.994Z,62.24
2023-02-16T18:13:52.040Z,62.58
2023-02-16T18:16:21.878Z,62.75
2023-02-16T18:18:49.209Z,63.49
2023-02-16T18:21:16.381Z,63.12
2023-02-16T18:23:43.869Z,64.03
2023-02-16T18:26:15.144Z,63.98
2023-02-16T18:28:42.504Z,63.76
2023-02-16T18:31:10.501Z,63.38
2023-02-16T18:33:37.622Z,63.44
2023-02-16T18:36:05.243Z,63.92
2023-02-16T18:38:32.485Z,64.40
2023-02-16T18:40:59.716Z,64.52
2023-02-16T18:43:26.704Z,64.76
2023-02-16T18:45:53.684Z,64.81
2023-02-16T18:48:22.138Z,64.63
2023-02-16T18:50:49.365Z,63.75
2023-02-16T18:53:16.345Z,63.59
2023-02-16T18:55:43.301Z,64.52
2023-02-16T18:58:13.107Z,63.18
2023-02-16T19:00:41.559Z,63.51
2023-02-16T19:03:09.061Z,64.19
2023-02-16T19:05:36.106Z,64.58
2023-02-16T19:08:03.120Z,64.04
2023-02-16T19:10:30.358Z,63.97
2023-02-16T19:12:57.288Z,63.58
2023-02-16T19:15:24.304Z,63.41
2023-02-16T19:17:52.252Z,63.22
2023-02-16T19:20:19.453Z,63.58
2023-02-16T19:22:48.291Z,63.22
2023-02-16T19:25:15.346Z,63.09
2023-02-16T19:27:42.784Z,63.38
2023-02-16T19:30:10.305Z,62.77
2023-02-16T19:32:41.036Z,62.37
2023-02-16T19:35:11.934Z,62.50
2023-02-16T19:37:39.114Z,63.69
2023-02-16T19:40:08.713Z,62.65
2023-02-16T19:42:38.333Z,62.35
2023-02-16T19:45:06.279Z,62.31
2023-02-16T19:47:33.288Z,62.40
2023-02-16T19:50:00.588Z,62.38
2023-02-16T19:52:27.582Z,62.26
2023-02-16T19:54:54.496Z,62.21
2023-02-16T19:57:21.646Z,61.78
2023-02-16T19:59:48.534Z,62.58
2023-02-16T20:02:15.718Z,62.45
2023-02-16T20:04:44.420Z,62.08
2023-02-16T20:07:11.607Z,61.64
2023-02-16T20:09:39.260Z,61.78
2023-02-16T20:12:06.775Z,61.66
2023-02-16T20:14:33.816Z,62.14
2023-02-16T20:17:04.002Z,61.99
2023-02-16T20:19:30.935Z,61.74
2023-02-16T20:21:57.836Z,61.84
2023-02-16T20:24:24.847Z,62.06
2023-02-16T20:26:52.307Z,62.47
2023-02-16T20:29:21.105Z,62.47
2023-02-16T20:31:54.873Z,61.92
2023-02-16T20:34:23.254Z,62.22
2023-02-16T20:36:50.414Z,62.10
2023-02-16T20:39:18.907Z,62.37
2023-02-16T20:41:46.367Z,62.26
2023-02-16T20:44:13.559Z,62.22
2023-02-16T20:46:41.278Z,62.14
2023-02-16T20:49:09.450Z,62.03
2023-02-16T20:51:37.366Z,62.10
2023-02-16T20:54:05.325Z,62.25
2023-02-16T20:56:32.456Z,62.71
2023-02-16T20:59:00.477Z,62.18
2023-02-16T21:01:34.442Z,62.00
2023-02-16T21:04:01.572Z,61.98
2023-02-16T21:06:28.850Z,62.24
2023-02-16T21:08:56.619Z,61.92
2023-02-16T21:11:24.260Z,61.89
2023-02-16T21:13:51.316Z,61.79
2023-02-16T21:16:18.509Z,61.75
2023-02-16T21:18:45.511Z,61.71
2023-02-16T21:21:15.769Z,61.94
2023-02-16T21:23:48.171Z,61.74
2023-02-16T21:26:16.174Z,61.53
2023-02-16T21:28:43.112Z,61.71
2023-02-16T21:31:13.286Z,61.43
2023-02-16T21:33:40.971Z,61.67
2023-02-16T21:36:14.920Z,61.73
2023-02-16T21:38:42.165Z,61.50
2023-02-16T21:41:25.496Z,61.91
2023-02-16T21:43:54.060Z,61.60
2023-02-16T21:46:21.898Z,61.86
2023-02-16T21:48:50.236Z,62.19
2023-02-16T21:51:24.375Z,62.10
2023-02-16T21:53:51.515Z,61.91
2023-02-16T21:56:34.360Z,61.98
2023-02-16T21:59:02.066Z,61.97
2023-02-16T22:01:32.250Z,62.05
2023-02-16T22:04:00.813Z,61.94
2023-02-16T22:06:32.320Z,61.92
2023-02-16T22:09:00.177Z,62.11
2023-02-16T22:11:27.429Z,62.29
2023-02-16T22:13:56.078Z,62.17
2023-02-16T22:16:24.191Z,62.15
2023-02-16T22:19:05.014Z,62.10
2023-02-16T22:21:37.467Z,62.14
2023-02-16T22:24:05.400Z,62.39
2023-02-16T22:26:34.032Z,62.27
2023-02-16T22:29:03.984Z,62.33
2023-02-16T22:31:30.973Z,61.99
2023-02-16T22:34:01.159Z,61.96
2023-02-16T22:36:28.631Z,62.10
2023-02-16T22:38:55.925Z,62.35
2023-02-16T22:41:24.193Z,62.03
2023-02-16T22:43:59.814Z,62.23
2023-02-16T22:46:28.723Z,62.40
2023-02-16T22:48:58.639Z,62.31
2023-02-16T22:51:28.649Z,62.63
2023-02-16T22:53:57.749Z,62.28
2023-02-16T22:56:26.947Z,62.43
2023-02-16T22:58:57.331Z,62.37
2023-02-16T23:01:24.936Z,62.53
2023-02-16T23:03:54.548Z,62.56
2023-02-16T23:06:23.987Z,62.54
2023-02-16T23:09:00.681Z,62.94
2023-02-16T23:11:28.799Z,62.33
2023-02-16T23:13:56.174Z,62.40
2023-02-16T23:16:25.167Z,62.36
2023-02-16T23:18:52.520Z,62.04
2023-02-16T23:21:22.284Z,62.55
2023-02-16T23:23:50.784Z,62.77
2023-02-16T23:26:19.196Z,63.13
2023-02-16T23:28:50.998Z,63.09
2023-02-16T23:31:18.773Z,62.89
2023-02-16T23:33:45.926Z,63.03
2023-02-16T23:36:12.902Z,63.02
2023-02-16T23:38:40.067Z,62.44
2023-02-16T23:41:12.963Z,62.69
2023-02-16T23:43:39.969Z,62.99
2023-02-16T23:46:07.582Z,62.63
2023-02-16T23:48:34.816Z,63.33
2023-02-16T23:51:01.782Z,62.77
2023-02-16T23:53:29.198Z,63.15
2023-02-16T23:56:08.138Z,63.27
2023-02-16T23:58:42.926Z,63.17
